Memphis, Tennessee
Current Conditions -  °F | °C
As of 1:54 AM on Monday 22 Dec 2014 (Local Time) from KMEM Reporting Station
Overcast Overcast  
Wind Chill:   Ceiling: 700
Heat Index:   Visibility: 10mi
Dew Point:   Wind: 10mph
Humidity: 86%   Direction: 160°SSE
Pressure: 29.89"   Gusts: 20mph
Location:  35.15°N, 90.05°W
Report Text: KMEM 220754Z 16009G17KT 10SM OVC007 08/06 A2989 RMK AO2 SLP123 T00830061 $
Loading
Personal Weather Stations






























Interactive Weather Map New forecast layout! Learn more

10-Day Weather Forecast

Advertisements
Track Severe Weather on mobile